Time;durP1;ratioP1;P1;durP2;ratioP2;P2;SDS_P1;SDS_P2;PMS_P1;PMS_P2;Temp;Humidity;BMP_temperature;BMP_pressure;BME280_temperature;BME280_humidity;BME280_pressure;Samples;Min_cycle;Max_cycle;Signal;HPM_P1;HPM_P2
2024/01/27 00:01:35;;;;;;;21.23;3.20;;;3.90;99.90;;;;;;5086125;28;20043;-66
2024/01/27 00:04:01;;;;;;;20.73;2.53;;;3.90;99.90;;;;;;5086992;28;20495;-66
2024/01/27 00:06:27;;;;;;;21.75;3.13;;;3.80;99.90;;;;;;5088282;28;20036;-66
2024/01/27 00:08:52;;;;;;;23.60;3.35;;;3.80;99.90;;;;;;5085071;28;20427;-66
2024/01/27 00:11:18;;;;;;;22.67;2.90;;;3.80;99.90;;;;;;5118065;27;20036;-66
2024/01/27 00:13:45;;;;;;;24.42;3.13;;;3.80;99.90;;;;;;5086602;28;20043;-66
2024/01/27 00:16:10;;;;;;;23.13;3.92;;;3.80;99.90;;;;;;5088325;28;20085;-66
2024/01/27 00:18:37;;;;;;;16.58;2.70;;;3.70;99.90;;;;;;5090680;28;20482;-66
2024/01/27 00:21:06;;;;;;;19.88;3.30;;;3.70;99.90;;;;;;5087444;28;20091;-66
2024/01/27 00:23:32;;;;;;;23.30;2.78;;;3.70;99.90;;;;;;5085506;28;20036;-66
2024/01/27 00:25:58;;;;;;;23.80;2.60;;;3.70;99.90;;;;;;5070707;28;20110;-66
2024/01/27 00:28:24;;;;;;;14.80;2.50;;;3.60;99.90;;;;;;5085518;28;20044;-66
2024/01/27 00:30:50;;;;;;;19.83;4.05;;;3.60;99.90;;;;;;5084709;28;20073;-66
2024/01/27 00:33:16;;;;;;;19.70;2.70;;;3.60;99.90;;;;;;5084910;28;20027;-66
2024/01/27 00:35:42;;;;;;;22.00;3.38;;;3.60;99.90;;;;;;5089777;28;20119;-66
2024/01/27 00:38:07;;;;;;;17.77;3.30;;;3.50;99.90;;;;;;5079628;28;20066;-65
2024/01/27 00:40:33;;;;;;;17.33;2.60;;;3.50;99.90;;;;;;5111222;27;20036;-66
2024/01/27 00:42:59;;;;;;;19.75;2.67;;;3.60;99.90;;;;;;5079470;28;20071;-66
2024/01/27 00:45:26;;;;;;;18.92;2.45;;;3.50;99.90;;;;;;5085100;28;20036;-66
2024/01/27 00:47:52;;;;;;;16.35;2.85;;;3.40;99.90;;;;;;5079496;28;20048;-66
2024/01/27 00:50:17;;;;;;;21.55;2.60;;;3.50;99.90;;;;;;5111301;27;20540;-66
2024/01/27 00:52:43;;;;;;;19.65;3.03;;;3.50;99.90;;;;;;5083002;28;20036;-66
2024/01/27 00:55:08;;;;;;;22.55;3.38;;;3.50;99.90;;;;;;5089611;28;20381;-66
2024/01/27 00:57:37;;;;;;;18.60;3.00;;;3.50;99.90;;;;;;5087886;28;20165;-66
2024/01/27 01:00:06;;;;;;;20.40;2.85;;;3.60;99.90;;;;;;5083684;28;20051;-66
2024/01/27 01:02:32;;;;;;;17.35;3.17;;;3.60;99.90;;;;;;5083821;28;20051;-66
2024/01/27 01:04:57;;;;;;;18.42;3.40;;;3.60;99.90;;;;;;5116632;27;20055;-66
2024/01/27 01:07:23;;;;;;;26.98;4.20;;;3.50;99.90;;;;;;5085360;28;20414;-66
2024/01/27 01:09:48;;;;;;;17.23;2.47;;;3.50;99.90;;;;;;5121126;27;20040;-66
2024/01/27 01:12:15;;;;;;;17.67;3.35;;;3.50;99.90;;;;;;5119498;27;20085;-66
2024/01/27 01:14:41;;;;;;;21.50;3.05;;;3.50;99.90;;;;;;5086719;28;20052;-66
2024/01/27 01:17:07;;;;;;;16.95;2.50;;;3.40;99.90;;;;;;5090237;28;20501;-66
2024/01/27 01:19:32;;;;;;;22.00;3.30;;;3.50;99.90;;;;;;5089837;28;20032;-65
2024/01/27 01:21:58;;;;;;;22.33;2.70;;;3.40;99.90;;;;;;5089541;28;21087;-66
2024/01/27 01:24:24;;;;;;;19.10;3.00;;;3.50;99.90;;;;;;5085277;28;20044;-66
2024/01/27 01:26:49;;;;;;;15.02;2.80;;;3.50;99.90;;;;;;5085815;28;20040;-66
2024/01/27 01:29:15;;;;;;;18.35;2.30;;;3.50;99.90;;;;;;5088080;28;20423;-66
2024/01/27 01:31:42;;;;;;;19.30;2.90;;;3.40;99.90;;;;;;5082354;28;20174;-66
2024/01/27 01:34:08;;;;;;;16.25;2.15;;;3.50;99.90;;;;;;5086449;28;20032;-66
2024/01/27 01:36:34;;;;;;;17.65;2.75;;;3.40;99.90;;;;;;5074080;28;20043;-66
2024/01/27 01:38:59;;;;;;;21.50;4.20;;;3.40;99.90;;;;;;5080719;28;20153;-66
2024/01/27 01:41:25;;;;;;;20.13;2.20;;;3.40;99.90;;;;;;5086944;28;20048;-66
2024/01/27 01:43:50;;;;;;;18.40;3.13;;;3.40;99.90;;;;;;5085249;28;20493;-66
2024/01/27 01:46:16;;;;;;;19.85;2.85;;;3.30;99.90;;;;;;5083989;28;20031;-66
2024/01/27 01:48:42;;;;;;;15.82;2.25;;;3.30;99.90;;;;;;5083373;28;20396;-65
2024/01/27 01:51:08;;;;;;;16.35;2.95;;;3.30;99.90;;;;;;5089603;28;20070;-65
2024/01/27 01:53:34;;;;;;;18.35;3.35;;;3.30;99.90;;;;;;5085787;28;20029;-66
2024/01/27 01:56:01;;;;;;;24.85;2.65;;;3.30;99.90;;;;;;5103467;27;20044;-66
2024/01/27 01:58:33;;;;;;;15.45;2.47;;;3.30;99.90;;;;;;5084442;28;20064;-66
2024/01/27 02:01:00;;;;;;;18.95;2.90;;;3.30;99.90;;;;;;5086480;28;20044;-65
2024/01/27 02:03:25;;;;;;;18.67;2.70;;;3.30;99.90;;;;;;5084499;28;20084;-66
2024/01/27 02:05:51;;;;;;;17.70;2.63;;;3.30;99.90;;;;;;5083614;28;20040;-66
2024/01/27 02:08:17;;;;;;;16.85;2.70;;;3.30;99.90;;;;;;5086048;28;20061;-66
2024/01/27 02:10:42;;;;;;;16.42;2.25;;;3.30;99.90;;;;;;5085512;28;20496;-66
2024/01/27 02:13:22;;;;;;;15.30;2.58;;;3.30;99.90;;;;;;5076373;28;20067;-66
2024/01/27 02:15:48;;;;;;;21.75;4.32;;;3.20;99.90;;;;;;5078723;28;20127;-65
2024/01/27 02:18:14;;;;;;;13.23;2.10;;;3.20;99.90;;;;;;5078402;28;20066;-65
2024/01/27 02:20:40;;;;;;;20.42;2.88;;;3.20;99.90;;;;;;5080302;28;20076;-65
2024/01/27 02:23:06;;;;;;;24.50;3.38;;;3.20;99.90;;;;;;5077681;28;20075;-65
2024/01/27 02:25:33;;;;;;;18.42;3.65;;;3.20;99.90;;;;;;5079894;28;20093;-66
2024/01/27 02:27:58;;;;;;;23.48;4.68;;;3.20;99.90;;;;;;5079334;28;20123;-66
2024/01/27 02:30:24;;;;;;;17.65;2.65;;;3.20;99.90;;;;;;5077547;28;20143;-65
2024/01/27 02:32:55;;;;;;;17.27;2.40;;;3.20;99.90;;;;;;5077462;28;20073;-65
2024/01/27 02:35:21;;;;;;;10.07;1.63;;;3.20;99.90;;;;;;5083269;28;20494;-66
2024/01/27 02:37:46;;;;;;;15.75;2.63;;;3.10;99.90;;;;;;5079743;28;20054;-66
2024/01/27 02:40:12;;;;;;;18.48;2.60;;;3.10;99.90;;;;;;5083751;28;20098;-66
2024/01/27 02:42:37;;;;;;;15.13;3.13;;;3.10;99.90;;;;;;5083387;28;20040;-66
2024/01/27 02:45:04;;;;;;;24.75;2.53;;;3.10;99.90;;;;;;5085835;28;20043;-65
2024/01/27 02:47:30;;;;;;;13.30;2.10;;;3.10;99.90;;;;;;5086418;28;20058;-65
2024/01/27 02:49:55;;;;;;;18.75;2.20;;;3.10;99.90;;;;;;5114510;27;20044;-66
2024/01/27 02:52:21;;;;;;;15.93;2.63;;;3.10;99.90;;;;;;5080473;28;20044;-66
2024/01/27 02:54:46;;;;;;;22.73;3.08;;;3.10;99.90;;;;;;5080587;28;20068;-66
2024/01/27 02:57:13;;;;;;;14.73;3.03;;;3.10;99.90;;;;;;5084796;28;20487;-66
2024/01/27 02:59:41;;;;;;;17.60;2.83;;;3.10;99.90;;;;;;5085442;28;20097;-66
2024/01/27 03:02:07;;;;;;;14.27;2.80;;;3.10;99.90;;;;;;5115224;27;20044;-66
2024/01/27 03:04:33;;;;;;;13.32;2.45;;;3.10;99.90;;;;;;5079780;28;20044;-66
2024/01/27 03:06:58;;;;;;;11.20;2.08;;;3.00;99.90;;;;;;5083614;28;20074;-66
2024/01/27 03:09:24;;;;;;;18.98;2.13;;;3.00;99.90;;;;;;5083290;28;20067;-65
2024/01/27 03:11:49;;;;;;;13.70;2.05;;;3.00;99.90;;;;;;5082158;28;20094;-66
2024/01/27 03:14:15;;;;;;;13.70;2.97;;;3.40;99.90;;;;;;5082020;28;20044;-66
2024/01/27 03:16:44;;;;;;;16.50;2.40;;;3.00;99.90;;;;;;5082561;28;20070;-66
2024/01/27 03:19:10;;;;;;;19.42;2.63;;;2.90;99.90;;;;;;5080867;28;20055;-66
2024/01/27 03:21:36;;;;;;;23.75;3.50;;;3.00;99.90;;;;;;5114471;27;20478;-65
2024/01/27 03:24:01;;;;;;;17.73;2.25;;;3.10;99.90;;;;;;5082066;28;20089;-65
2024/01/27 03:26:27;;;;;;;18.75;2.35;;;3.00;99.90;;;;;;5083611;28;20040;-66
2024/01/27 03:28:53;;;;;;;14.77;2.65;;;3.10;99.90;;;;;;5080277;28;20040;-66
2024/01/27 03:31:18;;;;;;;16.45;3.72;;;3.10;99.90;;;;;;5081782;28;20036;-66
2024/01/27 03:33:44;;;;;;;23.88;2.13;;;3.20;99.90;;;;;;5078309;28;20028;-66
2024/01/27 03:36:13;;;;;;;15.30;2.55;;;3.10;99.90;;;;;;5081806;28;20074;-65
2024/01/27 03:38:42;;;;;;;19.75;2.90;;;3.20;99.90;;;;;;5081357;28;20499;-66
2024/01/27 03:41:08;;;;;;;18.08;2.75;;;3.20;99.90;;;;;;5088086;28;20086;-66
2024/01/27 03:43:34;;;;;;;21.27;3.22;;;3.20;99.90;;;;;;5081870;28;20063;-65
2024/01/27 03:46:00;;;;;;;18.13;3.22;;;3.10;99.90;;;;;;5085822;28;20035;-65
2024/01/27 03:48:26;;;;;;;16.00;2.35;;;3.10;99.90;;;;;;5079998;28;20036;-66
2024/01/27 03:50:51;;;;;;;16.23;2.20;;;3.10;99.90;;;;;;5081378;28;20481;-66
2024/01/27 03:53:17;;;;;;;21.15;2.60;;;3.00;99.90;;;;;;5115041;27;20048;-66
2024/01/27 03:55:43;;;;;;;17.52;3.40;;;3.00;99.90;;;;;;5112833;27;20036;-66
2024/01/27 03:58:08;;;;;;;15.43;2.47;;;3.00;99.90;;;;;;5086204;28;20036;-65
2024/01/27 04:00:34;;;;;;;15.50;2.83;;;3.00;99.90;;;;;;5083006;28;20379;-65
2024/01/27 04:03:00;;;;;;;18.02;3.05;;;3.10;99.90;;;;;;5082495;28;20121;-66
2024/01/27 04:05:26;;;;;;;19.95;2.85;;;3.00;99.90;;;;;;5079835;28;20071;-65
2024/01/27 04:07:52;;;;;;;13.27;2.10;;;3.00;99.90;;;;;;5082823;28;20470;-66
2024/01/27 04:10:18;;;;;;;13.60;2.22;;;2.90;99.90;;;;;;5079803;28;20110;-66
2024/01/27 04:12:44;;;;;;;23.95;2.45;;;2.90;99.90;;;;;;5117223;27;20044;-66
2024/01/27 04:15:10;;;;;;;12.50;2.55;;;2.90;99.90;;;;;;5080675;28;20031;-65
2024/01/27 04:17:37;;;;;;;16.80;3.03;;;3.00;99.90;;;;;;5088109;28;20051;-65
2024/01/27 04:20:04;;;;;;;11.85;2.42;;;3.70;99.90;;;;;;5081746;28;20040;-65
2024/01/27 04:22:30;;;;;;;17.90;2.60;;;3.00;99.90;;;;;;5080143;28;20032;-66
2024/01/27 04:24:57;;;;;;;21.88;2.58;;;3.00;99.90;;;;;;5082589;28;20047;-65
2024/01/27 04:27:22;;;;;;;11.88;2.30;;;2.90;99.90;;;;;;5081309;28;20399;-65
2024/01/27 04:29:48;;;;;;;18.48;3.42;;;2.90;99.90;;;;;;5078701;28;20036;-65
2024/01/27 04:32:14;;;;;;;14.90;3.10;;;2.90;99.90;;;;;;5078818;28;20066;-65
2024/01/27 04:34:40;;;;;;;17.50;3.03;;;2.90;99.90;;;;;;5082310;28;20106;-65
2024/01/27 04:37:05;;;;;;;20.42;3.30;;;2.90;99.90;;;;;;5082434;28;20466;-66
2024/01/27 04:39:31;;;;;;;17.02;2.97;;;2.90;99.90;;;;;;5079729;28;20058;-66
2024/01/27 04:41:57;;;;;;;16.85;3.08;;;2.80;99.90;;;;;;5080943;28;20082;-65
2024/01/27 04:44:22;;;;;;;14.15;2.25;;;2.80;99.90;;;;;;5083079;28;20055;-65
2024/01/27 04:46:48;;;;;;;13.98;2.53;;;2.80;99.90;;;;;;5113117;27;20047;-65
2024/01/27 04:49:15;;;;;;;13.30;2.58;;;2.80;99.90;;;;;;5082857;28;20131;-66
2024/01/27 04:51:41;;;;;;;19.90;2.95;;;2.80;99.90;;;;;;5079161;28;20033;-66
2024/01/27 04:54:07;;;;;;;14.98;2.47;;;2.80;99.90;;;;;;5080052;28;20085;-66
2024/01/27 04:56:33;;;;;;;14.38;3.05;;;2.80;99.90;;;;;;5095309;28;20125;-65
2024/01/27 04:58:58;;;;;;;18.25;3.38;;;2.80;99.90;;;;;;5080895;28;20127;-65
2024/01/27 05:01:24;;;;;;;22.23;2.92;;;2.90;99.90;;;;;;5085627;28;20036;-65
2024/01/27 05:03:50;;;;;;;15.75;2.67;;;2.90;99.90;;;;;;5082735;28;20040;-65
2024/01/27 05:06:16;;;;;;;15.68;2.85;;;2.90;99.90;;;;;;5077540;28;20127;-65
2024/01/27 05:08:41;;;;;;;15.48;2.83;;;2.90;99.90;;;;;;5080418;28;20048;-65
2024/01/27 05:11:07;;;;;;;15.90;2.85;;;2.90;99.90;;;;;;5077194;28;20062;-65
2024/01/27 05:13:33;;;;;;;22.48;3.35;;;2.90;99.90;;;;;;5077975;28;20071;-65
2024/01/27 05:15:58;;;;;;;14.88;2.38;;;2.80;99.90;;;;;;5079767;28;20035;-65
2024/01/27 05:18:24;;;;;;;20.67;3.83;;;2.80;99.90;;;;;;5078817;28;20037;-66
2024/01/27 05:20:49;;;;;;;16.13;2.25;;;2.80;99.90;;;;;;5080266;28;20032;-65
2024/01/27 05:23:15;;;;;;;15.38;2.70;;;2.70;99.90;;;;;;5109064;27;20422;-65
2024/01/27 05:25:41;;;;;;;16.58;3.10;;;2.70;99.90;;;;;;5080291;28;20047;-65
2024/01/27 05:28:07;;;;;;;27.95;3.28;;;2.80;99.90;;;;;;5064438;28;20069;-65
2024/01/27 05:30:33;;;;;;;12.95;2.00;;;2.80;99.90;;;;;;5077196;28;20044;-65
2024/01/27 05:32:58;;;;;;;20.70;2.90;;;2.90;99.90;;;;;;5111388;27;20031;-66
2024/01/27 05:35:24;;;;;;;13.82;2.60;;;2.90;99.90;;;;;;5076741;28;20478;-65
2024/01/27 05:37:51;;;;;;;19.77;3.15;;;2.80;99.90;;;;;;5114372;27;20036;-66
2024/01/27 05:40:16;;;;;;;22.67;3.10;;;2.80;99.90;;;;;;5080299;28;20349;-65
2024/01/27 05:42:43;;;;;;;15.85;3.00;;;2.80;99.90;;;;;;5080362;28;20055;-65
2024/01/27 05:45:10;;;;;;;19.13;2.95;;;2.80;99.90;;;;;;5081591;28;20033;-65
2024/01/27 05:47:35;;;;;;;17.95;3.05;;;2.70;99.90;;;;;;5079915;28;20074;-65
2024/01/27 05:50:01;;;;;;;14.35;2.83;;;2.80;99.90;;;;;;5079518;28;20040;-65
2024/01/27 05:52:27;;;;;;;15.10;3.25;;;2.70;99.90;;;;;;5060969;28;20032;-66
2024/01/27 05:54:53;;;;;;;16.45;3.40;;;2.70;99.90;;;;;;5080228;28;20044;-65
2024/01/27 05:57:18;;;;;;;15.90;3.28;;;2.70;99.90;;;;;;5080100;28;20028;-65
2024/01/27 05:59:44;;;;;;;18.98;2.95;;;2.70;99.90;;;;;;5081855;28;20047;-65
2024/01/27 06:02:10;;;;;;;20.08;3.05;;;2.60;99.90;;;;;;5110816;27;20075;-65
2024/01/27 06:04:35;;;;;;;12.73;2.28;;;2.60;99.90;;;;;;5112773;27;20052;-65
2024/01/27 06:07:01;;;;;;;16.73;2.47;;;2.50;99.90;;;;;;5079264;28;20048;-65
2024/01/27 06:09:28;;;;;;;17.27;2.80;;;2.50;99.90;;;;;;5086273;28;20390;-65
2024/01/27 06:11:54;;;;;;;13.43;2.67;;;2.50;99.90;;;;;;5079305;28;20495;-66
2024/01/27 06:14:19;;;;;;;25.55;3.08;;;2.50;99.90;;;;;;5086593;28;20028;-65
2024/01/27 06:16:45;;;;;;;18.27;2.80;;;2.40;99.90;;;;;;5111217;28;20059;-65
2024/01/27 06:19:10;;;;;;;17.55;2.72;;;2.40;99.90;;;;;;5080243;28;20094;-65
2024/01/27 06:21:36;;;;;;;16.33;3.40;;;2.50;99.90;;;;;;5081502;28;20495;-65
2024/01/27 06:24:02;;;;;;;16.60;4.43;;;2.40;99.90;;;;;;5112936;27;20494;-66
2024/01/27 06:26:27;;;;;;;22.73;3.83;;;2.40;99.90;;;;;;5078699;28;20072;-65
2024/01/27 06:28:53;;;;;;;20.38;3.42;;;2.40;99.90;;;;;;5083124;28;20028;-65
2024/01/27 06:31:18;;;;;;;14.30;3.20;;;2.40;99.90;;;;;;5073490;28;20464;-65
2024/01/27 06:33:44;;;;;;;20.17;3.65;;;2.40;99.90;;;;;;5075943;28;20043;-65
2024/01/27 06:36:10;;;;;;;10.93;3.65;;;2.40;99.90;;;;;;5076867;28;20048;-65
2024/01/27 06:38:37;;;;;;;14.80;3.85;;;2.30;99.90;;;;;;5071351;28;20501;-66
2024/01/27 06:41:03;;;;;;;23.42;4.20;;;2.40;99.90;;;;;;5077867;28;20051;-65
2024/01/27 06:43:29;;;;;;;15.30;3.85;;;2.40;99.90;;;;;;5073165;28;20048;-65
2024/01/27 06:45:57;;;;;;;24.85;4.03;;;2.30;99.90;;;;;;5077834;28;20491;-65
2024/01/27 06:48:25;;;;;;;24.23;4.63;;;2.40;99.90;;;;;;5077394;28;20044;-65
2024/01/27 06:50:51;;;;;;;22.13;5.07;;;2.40;99.90;;;;;;5076219;28;20047;-65
2024/01/27 06:53:18;;;;;;;21.15;4.55;;;2.30;99.90;;;;;;5072978;28;20040;-65
2024/01/27 06:55:44;;;;;;;17.10;5.97;;;2.40;99.90;;;;;;5073569;28;20439;-65
2024/01/27 06:58:10;;;;;;;21.35;5.53;;;2.40;99.90;;;;;;5075948;28;20031;-65
2024/01/27 07:00:35;;;;;;;13.82;4.75;;;2.40;99.90;;;;;;5074661;28;20048;-65
2024/01/27 07:03:02;;;;;;;13.25;4.45;;;2.40;99.90;;;;;;5079368;28;20810;-66
2024/01/27 07:05:28;;;;;;;20.40;6.40;;;2.30;99.90;;;;;;5074166;28;20043;-66
2024/01/27 07:07:54;;;;;;;24.17;5.70;;;2.40;99.90;;;;;;5073077;28;20466;-65
2024/01/27 07:10:20;;;;;;;19.52;5.00;;;2.40;99.90;;;;;;5071411;28;20043;-65
2024/01/27 07:12:45;;;;;;;23.73;6.90;;;2.40;99.90;;;;;;5055542;28;20044;-66
2024/01/27 07:15:11;;;;;;;22.23;6.40;;;2.30;99.90;;;;;;5077049;28;20093;-65
2024/01/27 07:17:37;;;;;;;16.92;5.57;;;2.30;99.90;;;;;;5074343;28;20039;-65
2024/01/27 07:20:03;;;;;;;18.00;6.10;;;2.30;99.90;;;;;;5074875;28;20139;-65
2024/01/27 07:22:28;;;;;;;27.63;6.95;;;2.30;99.90;;;;;;5091278;27;20451;-65
2024/01/27 07:24:55;;;;;;;16.05;6.10;;;2.30;99.90;;;;;;5079603;28;20311;-65
2024/01/27 07:27:22;;;;;;;17.73;7.03;;;2.30;99.90;;;;;;5076430;28;20048;-65
2024/01/27 07:29:48;;;;;;;18.38;6.88;;;2.40;99.90;;;;;;5078290;28;20127;-66
2024/01/27 07:32:13;;;;;;;20.27;6.45;;;2.30;99.90;;;;;;5077641;28;20036;-65
2024/01/27 07:34:45;;;;;;;24.10;6.63;;;2.40;99.90;;;;;;5112552;27;20048;-65
2024/01/27 07:37:11;;;;;;;24.45;7.13;;;2.40;99.90;;;;;;5080914;28;20051;-65
2024/01/27 07:39:36;;;;;;;22.95;6.55;;;2.40;99.90;;;;;;5074969;28;20044;-65
2024/01/27 07:42:02;;;;;;;29.13;6.93;;;2.40;99.90;;;;;;5079037;28;20060;-65
2024/01/27 07:44:28;;;;;;;20.42;6.85;;;2.40;99.90;;;;;;5077944;28;20099;-65
2024/01/27 07:46:54;;;;;;;18.13;7.60;;;2.40;99.90;;;;;;5078913;28;20055;-66
2024/01/27 07:49:19;;;;;;;16.65;6.55;;;2.40;99.90;;;;;;5079495;28;20051;-65
2024/01/27 07:51:45;;;;;;;17.75;7.82;;;2.30;99.90;;;;;;5078373;28;20077;-66
2024/01/27 07:54:11;;;;;;;20.17;6.57;;;2.30;99.90;;;;;;5074720;28;20395;-65
2024/01/27 07:56:38;;;;;;;19.15;6.18;;;2.40;99.90;;;;;;5081156;28;20047;-65
2024/01/27 07:59:03;;;;;;;23.25;6.97;;;2.40;99.90;;;;;;5078929;28;20371;-66
2024/01/27 08:01:29;;;;;;;19.30;6.50;;;2.40;99.90;;;;;;5082501;28;20100;-66
2024/01/27 08:03:54;;;;;;;27.60;7.78;;;2.40;99.90;;;;;;5078288;28;21608;-66
2024/01/27 08:06:29;;;;;;;24.67;6.20;;;2.50;99.90;;;;;;5078590;28;20588;-65
2024/01/27 08:08:55;;;;;;;21.63;6.65;;;2.50;99.90;;;;;;5075335;28;20123;-65
2024/01/27 08:11:20;;;;;;;20.30;6.00;;;2.50;99.90;;;;;;5078376;28;20123;-65
2024/01/27 08:13:46;;;;;;;19.92;6.03;;;2.60;99.90;;;;;;5108494;27;20139;-65
2024/01/27 08:16:12;;;;;;;24.40;6.78;;;2.60;99.90;;;;;;5109647;27;20046;-65
2024/01/27 08:18:39;;;;;;;19.90;6.30;;;2.70;99.90;;;;;;5078983;28;20078;-65
2024/01/27 08:21:05;;;;;;;19.33;6.32;;;2.70;99.90;;;;;;5079475;28;20032;-65
2024/01/27 08:23:30;;;;;;;16.23;5.90;;;2.80;99.90;;;;;;5082727;28;20035;-65
2024/01/27 08:25:56;;;;;;;23.58;7.15;;;2.80;99.90;;;;;;5079344;28;20123;-65
2024/01/27 08:28:22;;;;;;;23.88;6.70;;;2.80;99.90;;;;;;5082680;28;20089;-65
2024/01/27 08:30:48;;;;;;;16.40;5.88;;;2.80;99.90;;;;;;5080871;28;20033;-65
2024/01/27 08:33:14;;;;;;;22.52;6.03;;;2.80;99.90;;;;;;5077963;28;20115;-65
2024/01/27 08:35:39;;;;;;;17.60;5.28;;;2.80;99.90;;;;;;5078280;28;20478;-66
2024/01/27 08:38:06;;;;;;;14.75;6.20;;;2.90;99.90;;;;;;5081816;28;20043;-66
2024/01/27 08:40:32;;;;;;;17.60;5.55;;;2.90;99.90;;;;;;5097498;28;20040;-65
2024/01/27 08:42:57;;;;;;;19.08;5.85;;;2.90;99.90;;;;;;5082676;28;20332;-65
2024/01/27 08:45:24;;;;;;;18.20;6.85;;;3.00;99.90;;;;;;5077652;28;20035;-66
2024/01/27 08:47:49;;;;;;;20.98;5.97;;;3.00;99.90;;;;;;5079720;28;20048;-66
2024/01/27 08:50:15;;;;;;;22.35;6.30;;;3.00;99.90;;;;;;5079605;28;20262;-65
2024/01/27 08:52:41;;;;;;;19.65;6.10;;;3.10;99.90;;;;;;5080905;28;20039;-65
2024/01/27 08:55:07;;;;;;;18.92;6.75;;;3.10;99.90;;;;;;5086971;28;20563;-65
2024/01/27 08:57:33;;;;;;;18.33;5.82;;;3.10;99.90;;;;;;5078977;28;20414;-65
2024/01/27 08:59:58;;;;;;;19.00;7.00;;;3.20;99.90;;;;;;5075745;28;20044;-65
2024/01/27 09:02:24;;;;;;;22.27;5.53;;;3.20;99.90;;;;;;5081994;28;20036;-65
2024/01/27 09:04:49;;;;;;;19.60;6.38;;;3.30;99.90;;;;;;5078783;28;20075;-65
2024/01/27 09:07:16;;;;;;;16.52;5.88;;;3.30;99.90;;;;;;5077832;28;20044;-65
2024/01/27 09:09:42;;;;;;;23.08;7.30;;;3.40;99.90;;;;;;5076785;28;20177;-66
2024/01/27 09:12:08;;;;;;;14.85;5.80;;;3.40;99.90;;;;;;5082421;28;20044;-65
2024/01/27 09:14:33;;;;;;;21.08;6.28;;;3.40;99.90;;;;;;5081833;28;20032;-66
2024/01/27 09:17:02;;;;;;;19.63;6.00;;;3.50;99.90;;;;;;5064874;28;20046;-66
2024/01/27 09:19:28;;;;;;;20.65;6.97;;;3.50;99.90;;;;;;5077033;28;20067;-66
2024/01/27 09:21:54;;;;;;;20.15;6.40;;;3.60;99.90;;;;;;5080004;28;20125;-66
2024/01/27 09:24:19;;;;;;;19.17;6.70;;;3.60;99.90;;;;;;5079784;28;20466;-66
2024/01/27 09:26:45;;;;;;;18.33;5.78;;;3.60;99.90;;;;;;5078244;28;20036;-66
2024/01/27 09:29:11;;;;;;;22.25;6.97;;;3.70;99.90;;;;;;5067034;28;20032;-66
2024/01/27 09:31:36;;;;;;;17.88;6.50;;;3.80;99.90;;;;;;5079594;28;20091;-66
2024/01/27 09:34:02;;;;;;;22.70;7.18;;;3.80;99.90;;;;;;5083004;28;20032;-66
2024/01/27 09:36:28;;;;;;;27.45;7.07;;;3.80;99.90;;;;;;5080583;28;20089;-66
2024/01/27 09:38:54;;;;;;;22.25;7.38;;;3.90;99.90;;;;;;5112067;27;20048;-66
2024/01/27 09:41:20;;;;;;;19.27;7.38;;;4.00;99.90;;;;;;5073774;28;20081;-66
2024/01/27 09:43:47;;;;;;;20.17;8.48;;;4.00;99.90;;;;;;5078820;28;20048;-66
2024/01/27 09:46:17;;;;;;;21.13;6.72;;;4.10;99.90;;;;;;5065183;28;20139;-66
2024/01/27 09:48:43;;;;;;;21.23;7.43;;;4.20;99.90;;;;;;5075351;28;20390;-66
2024/01/27 09:51:10;;;;;;;22.50;8.88;;;4.20;99.90;;;;;;5077815;28;20055;-66
2024/01/27 09:53:36;;;;;;;25.98;9.73;;;4.40;99.90;;;;;;5109319;27;20084;-66
2024/01/27 09:56:03;;;;;;;20.70;7.80;;;4.50;99.90;;;;;;5076158;28;20055;-66
2024/01/27 09:58:30;;;;;;;22.25;8.20;;;4.50;99.90;;;;;;5082101;28;20553;-66
2024/01/27 10:00:57;;;;;;;20.85;9.30;;;4.60;99.90;;;;;;5077828;28;20036;-65
2024/01/27 10:03:28;;;;;;;24.75;8.90;;;4.60;99.90;;;;;;5079380;28;20048;-67
2024/01/27 10:05:55;;;;;;;22.13;8.55;;;4.80;99.90;;;;;;5079248;28;20059;-67
2024/01/27 10:08:22;;;;;;;24.75;8.07;;;4.80;99.90;;;;;;5080885;28;20139;-64
2024/01/27 10:10:53;;;;;;;30.77;8.70;;;4.90;99.90;;;;;;5079632;28;20078;-66
2024/01/27 10:13:26;;;;;;;24.00;8.77;;;5.10;99.90;;;;;;5082816;28;20043;-67
2024/01/27 10:16:12;;;;;;;33.03;7.82;;;5.10;99.90;;;;;;5065985;28;20050;-66
2024/01/27 10:18:37;;;;;;;20.63;8.00;;;5.20;99.90;;;;;;5078228;28;20051;-67
2024/01/27 10:21:18;;;;;;;22.38;7.80;;;5.30;99.90;;;;;;5116582;27;20406;-66
2024/01/27 10:23:43;;;;;;;22.73;7.53;;;5.40;99.90;;;;;;5082542;28;20046;-66
2024/01/27 10:26:10;;;;;;;17.35;7.97;;;5.50;99.90;;;;;;5081282;28;20567;-66
2024/01/27 10:28:35;;;;;;;19.73;6.45;;;5.60;99.90;;;;;;5080969;28;20040;-67
2024/01/27 10:31:11;;;;;;;17.52;7.10;;;5.70;99.90;;;;;;5080810;28;20557;-68
2024/01/27 10:33:37;;;;;;;;;;;5.80;99.90;;;;;;5077962;28;20076;-67
2024/01/27 10:36:03;;;;;;;26.00;8.38;;;5.90;99.90;;;;;;5080588;28;20435;-67
2024/01/27 10:38:37;;;;;;;23.15;6.55;;;6.00;99.90;;;;;;5078557;28;20449;-67
2024/01/27 10:41:07;;;;;;;16.98;6.70;;;6.10;99.90;;;;;;5083248;28;20123;-67
2024/01/27 10:43:35;;;;;;;16.42;6.15;;;6.30;99.90;;;;;;5080386;28;20390;-67
2024/01/27 10:46:05;;;;;;;17.00;6.47;;;6.40;99.90;;;;;;5082822;28;20375;-67
2024/01/27 10:48:31;;;;;;;14.15;5.00;;;6.50;99.90;;;;;;5110305;28;20076;-67
2024/01/27 10:50:58;;;;;;;20.02;5.75;;;6.70;99.90;;;;;;5079579;28;20048;-67
2024/01/27 10:53:24;;;;;;;13.43;5.15;;;6.80;99.90;;;;;;5082270;28;20047;-67
2024/01/27 10:55:55;;;;;;;14.23;5.38;;;6.90;99.90;;;;;;5084379;28;20108;-67
2024/01/27 10:58:24;;;;;;;13.25;4.68;;;7.00;99.90;;;;;;5087407;28;20148;-67
2024/01/27 11:00:52;;;;;;;21.65;7.10;;;7.10;99.90;;;;;;5083123;28;20064;-67
2024/01/27 11:03:20;;;;;;;15.80;5.32;;;7.20;99.90;;;;;;5083571;28;20033;-67
2024/01/27 11:05:47;;;;;;;15.57;4.57;;;7.30;99.90;;;;;;5083671;28;20489;-67
2024/01/27 11:08:14;;;;;;;17.10;5.10;;;7.40;99.90;;;;;;5084006;28;20047;-67
2024/01/27 11:10:40;;;;;;;14.20;3.67;;;7.60;99.90;;;;;;5116578;27;20127;-67
2024/01/27 11:13:07;;;;;;;20.48;4.85;;;7.60;99.90;;;;;;5091405;28;20044;-67
2024/01/27 11:15:33;;;;;;;15.00;3.95;;;7.80;99.90;;;;;;5086535;28;20604;-67
2024/01/27 11:18:04;;;;;;;12.88;4.90;;;7.80;99.90;;;;;;5082401;28;20079;-67
2024/01/27 11:20:32;;;;;;;18.45;4.65;;;8.00;99.90;;;;;;5121020;27;20080;-67
2024/01/27 11:23:09;;;;;;;19.35;5.63;;;8.00;99.90;;;;;;5083469;28;20048;-67
2024/01/27 11:25:35;;;;;;;12.85;4.05;;;8.10;99.90;;;;;;5083390;28;20442;-67
2024/01/27 11:28:12;;;;;;;17.73;4.75;;;8.20;99.90;;;;;;5118550;27;20055;-67
2024/01/27 11:30:39;;;;;;;15.73;3.47;;;8.30;99.90;;;;;;5083425;28;20127;-67
2024/01/27 11:33:05;;;;;;;15.85;4.03;;;8.40;99.90;;;;;;5085816;28;20035;-67
2024/01/27 11:35:31;;;;;;;14.85;4.88;;;8.40;99.90;;;;;;5084488;28;20048;-67
2024/01/27 11:37:57;;;;;;;13.73;3.63;;;8.60;99.90;;;;;;5083846;28;20040;-67
2024/01/27 11:40:23;;;;;;;12.30;3.28;;;8.60;99.90;;;;;;5087406;28;20127;-67
2024/01/27 11:43:01;;;;;;;13.90;4.32;;;8.70;99.90;;;;;;5113288;27;20569;-67
2024/01/27 11:45:29;;;;;;;14.52;3.35;;;8.80;99.90;;;;;;5084915;28;20090;-67
2024/01/27 11:47:56;;;;;;;15.48;4.55;;;8.90;99.90;;;;;;5086569;28;20097;-67
2024/01/27 11:50:22;;;;;;;18.15;5.22;;;9.00;99.90;;;;;;5083495;28;20115;-67
2024/01/27 11:52:48;;;;;;;17.08;3.80;;;9.10;99.90;;;;;;5082691;28;20147;-67
2024/01/27 11:55:15;;;;;;;14.20;4.30;;;9.20;99.90;;;;;;5081400;28;20101;-67
2024/01/27 11:57:41;;;;;;;16.45;4.93;;;9.20;99.90;;;;;;5083218;28;20037;-67
2024/01/27 12:00:09;;;;;;;12.77;3.45;;;9.30;99.90;;;;;;5084016;28;20689;-67
2024/01/27 12:02:35;;;;;;;11.80;3.53;;;9.40;99.90;;;;;;5082673;28;20052;-67
2024/01/27 12:05:01;;;;;;;13.73;4.03;;;9.40;99.90;;;;;;5084528;28;20046;-67
2024/01/27 12:07:27;;;;;;;14.80;4.90;;;9.40;99.90;;;;;;5083091;28;20064;-67
2024/01/27 12:09:53;;;;;;;17.80;4.15;;;9.50;99.90;;;;;;5106789;27;20139;-67
2024/01/27 12:12:19;;;;;;;11.57;4.20;;;9.50;99.90;;;;;;5112601;27;20040;-67
2024/01/27 12:14:47;;;;;;;11.90;3.97;;;9.50;99.90;;;;;;5082136;28;20043;-67
2024/01/27 12:17:13;;;;;;;13.23;4.18;;;9.50;99.90;;;;;;5080237;28;20040;-67
2024/01/27 12:19:39;;;;;;;17.85;4.93;;;9.40;99.90;;;;;;5066639;28;20036;-67
2024/01/27 12:22:20;;;;;;;15.05;4.55;;;9.40;99.90;;;;;;5077963;28;20127;-67
2024/01/27 12:24:46;;;;;;;17.40;4.15;;;9.50;99.90;;;;;;5080002;28;20039;-67
2024/01/27 12:27:12;;;;;;;17.30;4.22;;;9.40;99.90;;;;;;5079839;28;20688;-67
2024/01/27 12:29:37;;;;;;;15.27;3.67;;;9.20;99.90;;;;;;5080206;28;20150;-67
2024/01/27 12:32:03;;;;;;;13.18;4.30;;;9.20;99.90;;;;;;5080059;28;20063;-67
2024/01/27 12:34:29;;;;;;;15.30;3.70;;;9.10;99.90;;;;;;5112858;27;20040;-67
2024/01/27 12:36:56;;;;;;;10.00;3.75;;;9.10;99.90;;;;;;5111425;27;20032;-67
2024/01/27 12:39:22;;;;;;;12.27;3.28;;;9.00;99.90;;;;;;5077064;28;20115;-67
2024/01/27 12:41:47;;;;;;;15.32;4.30;;;9.00;99.90;;;;;;5077983;28;20557;-67
2024/01/27 12:44:13;;;;;;;12.32;3.28;;;9.10;99.90;;;;;;5078760;28;20020;-66